Time;durP1;ratioP1;P1;durP2;ratioP2;P2;SDS_P1;SDS_P2;PMS_P1;PMS_P2;Temp;Humidity;BMP_temperature;BMP_pressure;BME280_temperature;BME280_humidity;BME280_pressure;Samples;Min_cycle;Max_cycle;Signal;HPM_P1;HPM_P2
2024/02/15 00:00:37;;;;;;;1.20;1.00;;;;;;;11.63;100.00;99589.56;5081548;28;20036;-76
2024/02/15 00:03:06;;;;;;;1.20;0.90;;;;;;;11.60;100.00;99589.19;5081387;28;20027;-76
2024/02/15 00:05:36;;;;;;;1.33;1.20;;;;;;;11.59;100.00;99584.81;5115271;28;20027;-76
2024/02/15 00:08:02;;;;;;;2.00;1.17;;;;;;;11.55;100.00;99589.81;5114820;28;20119;-76
2024/02/15 00:10:28;;;;;;;1.05;0.90;;;;;;;11.56;100.00;99598.69;5064645;28;20031;-76
2024/02/15 00:12:54;;;;;;;1.52;1.08;;;;;;;11.57;100.00;99600.38;5081299;28;20089;-76
2024/02/15 00:15:19;;;;;;;1.92;1.10;;;;;;;11.57;100.00;99595.81;5114713;28;20100;-77
2024/02/15 00:17:46;;;;;;;1.08;0.80;;;;;;;11.54;100.00;99598.94;5081382;28;20036;-76
2024/02/15 00:20:13;;;;;;;1.65;1.00;;;;;;;11.51;100.00;99590.44;5114794;28;20057;-75
2024/02/15 00:22:42;;;;;;;1.15;0.80;;;;;;;11.47;100.00;99595.41;5114602;28;20020;-76
2024/02/15 00:25:08;;;;;;;1.52;1.00;;;;;;;11.40;100.00;99602.66;5098163;28;20506;-75
2024/02/15 00:27:35;;;;;;;0.98;0.68;;;;;;;11.40;100.00;99600.78;5114494;28;20032;-76
2024/02/15 00:30:02;;;;;;;0.85;0.60;;;;;;;11.38;100.00;99596.69;5097602;28;20032;-76
2024/02/15 00:32:29;;;;;;;0.60;0.60;;;;;;;11.33;100.00;99591.94;5097760;28;20044;-76
2024/02/15 00:34:55;;;;;;;4.20;0.75;;;;;;;11.31;100.00;99591.31;5080924;28;20130;-76
2024/02/15 00:37:21;;;;;;;0.88;0.80;;;;;;;11.34;100.00;99598.13;5080969;28;20122;-76
2024/02/15 00:39:46;;;;;;;0.70;0.70;;;;;;;11.36;100.00;99598.75;5097480;28;20034;-76
2024/02/15 00:42:12;;;;;;;2.15;0.85;;;;;;;11.35;100.00;99589.84;5080642;28;20547;-76
2024/02/15 00:44:39;;;;;;;1.75;0.90;;;;;;;11.31;100.00;99593.16;5080527;28;20028;-76
2024/02/15 00:47:05;;;;;;;2.88;0.93;;;;;;;11.24;100.00;99598.53;5080629;28;20467;-75
2024/02/15 00:49:31;;;;;;;1.77;1.10;;;;;;;11.20;100.00;99591.94;5080304;28;20027;-76
2024/02/15 00:51:57;;;;;;;1.55;1.10;;;;;;;11.19;100.00;99590.28;5080878;28;20502;-76
2024/02/15 00:54:24;;;;;;;1.42;0.90;;;;;;;11.16;100.00;99583.44;5097355;28;20036;-76
2024/02/15 00:56:51;;;;;;;1.05;0.90;;;;;;;11.15;100.00;99583.66;5080433;28;20028;-76
2024/02/15 00:59:18;;;;;;;2.08;0.90;;;;;;;11.10;100.00;99578.91;5097290;28;20528;-75
2024/02/15 01:01:44;;;;;;;1.60;1.02;;;;;;;11.08;100.00;99588.22;5080527;28;20042;-75
2024/02/15 01:04:10;;;;;;;2.55;0.95;;;;;;;11.02;100.00;99580.97;5096830;28;20039;-76
2024/02/15 01:06:36;;;;;;;1.00;0.90;;;;;;;11.00;100.00;99576.63;5080287;28;20042;-75
2024/02/15 01:09:03;;;;;;;1.73;0.90;;;;;;;10.96;100.00;99579.97;5113409;28;20032;-76
2024/02/15 01:11:32;;;;;;;2.58;1.20;;;;;;;10.95;100.00;99579.09;5097017;28;20084;-75
2024/02/15 01:13:58;;;;;;;0.95;0.80;;;;;;;10.94;100.00;99569.38;5080268;28;20039;-75
2024/02/15 01:16:24;;;;;;;1.08;0.73;;;;;;;10.93;100.00;99575.81;5080304;28;20513;-75
2024/02/15 01:18:50;;;;;;;2.38;0.80;;;;;;;10.88;100.00;99570.22;5079996;28;20111;-75
2024/02/15 01:21:16;;;;;;;2.67;1.00;;;;;;;10.87;100.00;99576.63;5079977;28;20119;-75
2024/02/15 01:23:42;;;;;;;1.38;1.00;;;;;;;10.88;100.00;99567.53;5113817;28;20455;-75
2024/02/15 01:26:08;;;;;;;2.30;1.05;;;;;;;10.88;100.00;99567.53;5096246;28;20030;-75
2024/02/15 01:28:34;;;;;;;1.00;0.80;;;;;;;10.87;100.00;99563.19;5079926;28;20032;-75
2024/02/15 01:30:59;;;;;;;2.47;1.10;;;;;;;10.88;100.00;99562.16;5079836;28;20100;-75
2024/02/15 01:33:26;;;;;;;2.08;1.05;;;;;;;10.88;100.00;99564.03;5096165;28;20030;-75
2024/02/15 01:35:53;;;;;;;1.70;0.90;;;;;;;10.89;100.00;99558.44;5096617;28;20364;-75
2024/02/15 01:38:19;;;;;;;1.52;1.02;;;;;;;10.90;100.00;99554.72;5079709;28;20088;-75
2024/02/15 01:40:47;;;;;;;0.85;0.70;;;;;;;10.91;100.00;99550.16;5079992;28;20027;-75
2024/02/15 01:43:12;;;;;;;1.00;0.90;;;;;;;10.90;100.00;99538.59;5096318;28;20034;-76
2024/02/15 01:45:38;;;;;;;3.72;0.98;;;;;;;10.90;100.00;99548.50;5079720;28;20031;-76
2024/02/15 01:48:05;;;;;;;0.70;0.70;;;;;;;10.87;100.00;99538.16;5079520;28;20455;-75
2024/02/15 01:50:32;;;;;;;0.93;0.93;;;;;;;10.87;100.00;99527.41;5062675;28;20043;-75
2024/02/15 01:52:59;;;;;;;2.08;1.10;;;;;;;10.86;100.00;99529.25;5096497;28;20089;-76
2024/02/15 01:55:25;;;;;;;2.97;1.00;;;;;;;10.82;100.00;99522.63;5079595;28;20031;-75
2024/02/15 01:57:50;;;;;;;1.25;0.90;;;;;;;10.83;100.00;99526.19;5079486;28;20119;-75
2024/02/15 02:00:18;;;;;;;1.50;1.00;;;;;;;10.77;100.00;99517.06;5079644;28;20118;-76
2024/02/15 02:02:48;;;;;;;1.92;1.20;;;;;;;10.77;100.00;99509.00;5079785;28;20035;-76
2024/02/15 02:05:14;;;;;;;3.20;1.33;;;;;;;10.75;100.00;99509.22;5096092;28;20036;-75
2024/02/15 02:07:40;;;;;;;1.40;0.93;;;;;;;10.72;100.00;99514.19;5112936;28;20035;-75
2024/02/15 02:10:07;;;;;;;4.40;1.30;;;;;;;10.70;100.00;99500.94;5079209;28;20547;-75
2024/02/15 02:12:33;;;;;;;3.05;1.63;;;;;;;10.69;100.00;99498.44;5095850;28;20035;-77
2024/02/15 02:14:59;;;;;;;5.25;1.85;;;;;;;10.69;100.00;99499.28;5079150;28;20092;-75
2024/02/15 02:17:24;;;;;;;3.97;1.52;;;;;;;10.68;100.00;99494.09;5095484;28;20104;-76
2024/02/15 02:19:50;;;;;;;2.38;1.38;;;;;;;10.67;100.00;99497.84;5079463;28;20035;-75
2024/02/15 02:22:20;;;;;;;4.65;1.83;;;;;;;10.68;100.00;99491.41;5079203;28;20456;-75
2024/02/15 02:25:08;;;;;;;2.90;1.35;;;;;;;10.67;100.00;99495.97;5079377;28;20036;-76
2024/02/15 02:27:35;;;;;;;4.28;1.63;;;;;;;10.68;100.00;99496.81;5112667;28;20484;-76
2024/02/15 02:30:14;;;;;;;2.75;1.25;;;;;;;10.71;100.00;99493.69;5095989;28;20028;-75
2024/02/15 02:32:41;;;;;;;3.90;1.70;;;;;;;10.71;100.00;99489.13;5096375;28;20043;-75
2024/02/15 02:35:07;;;;;;;3.47;1.73;;;;;;;10.76;100.00;99491.22;5079152;28;20036;-76
2024/02/15 02:37:36;;;;;;;2.22;1.70;;;;;;;10.78;100.00;99491.84;5079023;28;20041;-75
2024/02/15 02:40:04;;;;;;;2.63;1.63;;;;;;;10.79;100.00;99488.09;5096437;28;20470;-75
2024/02/15 02:42:30;;;;;;;3.85;1.80;;;;;;;10.79;100.00;99494.28;5079098;28;20051;-75
2024/02/15 02:44:56;;;;;;;3.08;1.88;;;;;;;10.81;100.00;99485.22;5078833;28;20031;-75
2024/02/15 02:47:22;;;;;;;7.28;1.85;;;;;;;10.81;100.00;99482.53;5078952;28;20051;-75
2024/02/15 02:49:47;;;;;;;4.50;1.88;;;;;;;10.78;100.00;99484.59;5079055;28;20027;-75
2024/02/15 02:52:13;;;;;;;4.65;1.77;;;;;;;10.79;100.00;99474.66;5078651;28;20114;-75
2024/02/15 02:54:39;;;;;;;4.97;2.40;;;;;;;10.81;100.00;99475.28;5095458;28;20023;-76
2024/02/15 02:57:06;;;;;;;3.78;1.98;;;;;;;10.77;100.00;99466.81;5078694;28;20027;-76
2024/02/15 02:59:35;;;;;;;2.80;1.90;;;;;;;10.82;100.00;99474.22;5095750;28;20031;-75
2024/02/15 03:02:03;;;;;;;3.30;1.92;;;;;;;10.81;100.00;99464.53;5095650;28;20387;-75
2024/02/15 03:04:29;;;;;;;4.88;2.05;;;;;;;10.81;100.00;99461.84;5078900;28;20024;-75
2024/02/15 03:06:56;;;;;;;4.05;2.42;;;;;;;10.80;100.00;99457.50;5095101;28;20028;-76
2024/02/15 03:09:22;;;;;;;4.22;2.10;;;;;;;10.81;100.00;99448.41;5079059;28;20027;-75
2024/02/15 03:11:49;;;;;;;3.80;2.17;;;;;;;10.77;100.00;99437.25;5112064;28;20028;-76
2024/02/15 03:14:15;;;;;;;3.65;2.03;;;;;;;10.80;100.00;99438.69;5099079;28;20473;-75
2024/02/15 03:16:41;;;;;;;3.95;1.80;;;;;;;10.79;100.00;99437.84;5082241;28;20483;-75
2024/02/15 03:19:09;;;;;;;3.17;2.10;;;;;;;10.77;100.00;99428.34;5082509;28;20043;-75
2024/02/15 03:21:35;;;;;;;3.17;1.92;;;;;;;10.76;100.00;99434.75;5099554;28;20026;-76
2024/02/15 03:24:01;;;;;;;3.35;1.95;;;;;;;10.74;100.00;99426.91;5082124;28;20039;-75
2024/02/15 03:26:36;;;;;;;2.85;1.85;;;;;;;10.76;100.00;99429.38;5081894;28;20036;-76
2024/02/15 03:29:03;;;;;;;3.60;1.88;;;;;;;10.70;100.00;99417.59;5082935;28;20047;-75
2024/02/15 03:31:30;;;;;;;2.33;1.30;;;;;;;10.74;100.00;99410.78;5098404;28;20035;-75
2024/02/15 03:33:59;;;;;;;4.50;2.15;;;;;;;10.76;100.00;99408.69;5099286;28;20028;-75
2024/02/15 03:36:25;;;;;;;2.72;1.70;;;;;;;10.76;100.00;99406.00;5082047;28;20028;-76
2024/02/15 03:38:53;;;;;;;3.53;2.00;;;;;;;10.76;100.00;99405.19;5098557;28;20038;-75
2024/02/15 03:41:19;;;;;;;3.30;1.70;;;;;;;10.76;100.00;99403.31;5082362;28;20043;-75
2024/02/15 03:43:46;;;;;;;2.13;1.30;;;;;;;10.76;100.00;99397.09;5081950;28;20122;-75
2024/02/15 03:46:14;;;;;;;2.13;1.38;;;;;;;10.74;100.00;99397.34;5098817;28;20032;-75
2024/02/15 03:48:43;;;;;;;3.47;1.67;;;;;;;10.77;100.00;99396.09;5098894;28;20071;-75
2024/02/15 03:51:09;;;;;;;2.60;1.63;;;;;;;10.77;100.00;99390.72;5098601;28;20119;-76
2024/02/15 03:53:37;;;;;;;1.98;1.38;;;;;;;10.76;100.00;99397.94;5081701;28;20074;-75
2024/02/15 03:56:04;;;;;;;2.40;1.40;;;;;;;10.76;100.00;99397.09;5098896;28;20032;-75
2024/02/15 03:58:32;;;;;;;2.20;1.25;;;;;;;10.73;100.00;99390.28;5098291;28;20035;-75
2024/02/15 04:00:59;;;;;;;2.17;1.20;;;;;;;10.72;100.00;99394.03;5081905;28;20051;-75
2024/02/15 04:03:25;;;;;;;1.88;1.20;;;;;;;10.72;100.00;99393.19;5080814;28;20134;-75
2024/02/15 04:05:50;;;;;;;1.90;1.20;;;;;;;10.72;100.00;99395.91;5081544;28;20540;-75
2024/02/15 04:08:17;;;;;;;1.65;1.00;;;;;;;10.71;100.00;99395.03;5081532;28;20027;-75
2024/02/15 04:10:43;;;;;;;1.13;0.90;;;;;;;10.71;100.00;99395.03;5097885;28;20035;-75
2024/02/15 04:13:09;;;;;;;1.27;1.02;;;;;;;10.71;100.00;99395.03;5081397;28;20047;-76
2024/02/15 04:15:35;;;;;;;1.63;1.13;;;;;;;10.69;100.00;99390.91;5081365;28;20031;-75
2024/02/15 04:18:00;;;;;;;1.58;0.95;;;;;;;10.69;100.00;99386.38;5097602;28;20078;-76
2024/02/15 04:20:27;;;;;;;1.38;0.90;;;;;;;10.68;100.00;99389.28;5081144;28;20130;-75
2024/02/15 04:22:54;;;;;;;1.42;0.93;;;;;;;10.68;100.00;99383.88;5115045;28;20115;-76
2024/02/15 04:25:22;;;;;;;0.90;0.70;;;;;;;10.66;100.00;99380.59;5080720;28;20032;-76
2024/02/15 04:27:49;;;;;;;1.08;0.80;;;;;;;10.65;100.00;99384.31;5098267;28;20040;-76
2024/02/15 04:30:19;;;;;;;1.05;0.90;;;;;;;10.62;100.00;99382.88;5080900;28;20032;-76
2024/02/15 04:32:45;;;;;;;1.13;0.90;;;;;;;10.60;100.00;99373.38;5081469;28;20039;-76
2024/02/15 04:35:11;;;;;;;0.63;0.60;;;;;;;10.56;100.00;99367.59;5081117;28;20032;-76
2024/02/15 04:37:37;;;;;;;0.50;0.50;;;;;;;10.56;100.00;99370.28;5114656;28;20058;-75
2024/02/15 04:40:10;;;;;;;0.77;0.70;;;;;;;10.55;100.00;99364.06;5097255;28;20095;-76
2024/02/15 04:42:39;;;;;;;0.60;0.57;;;;;;;10.54;100.00;99370.47;5082444;28;20027;-76
2024/02/15 04:45:08;;;;;;;1.00;0.80;;;;;;;10.52;100.00;99356.41;5097725;28;20441;-75
2024/02/15 04:47:45;;;;;;;0.70;0.70;;;;;;;10.55;100.00;99368.63;5098744;28;20027;-75
2024/02/15 04:50:11;;;;;;;0.50;0.50;;;;;;;10.54;100.00;99366.97;5097655;28;20019;-75
2024/02/15 04:52:37;;;;;;;0.70;0.70;;;;;;;10.54;100.00;99357.03;5097232;28;20118;-76
2024/02/15 04:55:05;;;;;;;0.50;0.50;;;;;;;10.54;100.00;99357.03;5096838;28;20035;-75
2024/02/15 04:57:33;;;;;;;0.68;0.68;;;;;;;10.54;100.00;99366.97;5097007;28;20555;-75
2024/02/15 04:59:59;;;;;;;0.65;0.65;;;;;;;10.52;100.00;99363.66;5097473;28;20027;-75
2024/02/15 05:02:25;;;;;;;0.75;0.75;;;;;;;10.54;100.00;99367.78;5097266;28;20027;-76
2024/02/15 05:04:56;;;;;;;1.90;0.70;;;;;;;10.54;100.00;99361.59;5080195;28;20046;-75
2024/02/15 05:07:39;;;;;;;0.90;0.73;;;;;;;10.52;100.00;99364.47;5097969;28;20030;-75
2024/02/15 05:10:09;;;;;;;0.63;0.63;;;;;;;10.54;100.00;99373.16;5097085;28;20035;-76
2024/02/15 05:12:37;;;;;;;0.82;0.80;;;;;;;10.56;100.00;99373.78;5097541;28;20027;-76
2024/02/15 05:15:10;;;;;;;0.73;0.63;;;;;;;10.53;100.00;99374.22;5113956;28;20028;-75
2024/02/15 05:17:40;;;;;;;1.70;0.90;;;;;;;10.56;100.00;99376.47;5097803;28;20042;-76
2024/02/15 05:20:11;;;;;;;1.48;0.95;;;;;;;10.56;100.00;99381.84;5096680;28;20050;-75
2024/02/15 05:22:38;;;;;;;4.57;0.70;;;;;;;10.54;100.00;99383.91;5081029;28;20474;-76
2024/02/15 05:25:08;;;;;;;0.90;0.70;;;;;;;10.54;100.00;99378.53;5113453;28;20035;-76
2024/02/15 05:27:35;;;;;;;0.93;0.80;;;;;;;10.56;100.00;99372.97;5113489;28;20045;-76
2024/02/15 05:30:06;;;;;;;1.10;0.90;;;;;;;10.60;100.00;99376.06;5114002;28;20035;-76
2024/02/15 05:32:34;;;;;;;0.80;0.73;;;;;;;10.59;100.00;99371.72;5113289;28;20043;-76
2024/02/15 05:35:01;;;;;;;1.38;1.00;;;;;;;10.59;100.00;99377.09;5096915;28;20066;-75
2024/02/15 05:37:27;;;;;;;1.20;0.88;;;;;;;10.58;100.00;99373.56;5112406;28;20034;-76
2024/02/15 05:39:53;;;;;;;1.15;0.90;;;;;;;10.56;100.00;99368.41;5079785;28;20028;-76
2024/02/15 05:42:20;;;;;;;1.30;0.85;;;;;;;10.56;100.00;99365.72;5113755;28;20114;-75
2024/02/15 05:44:46;;;;;;;1.27;1.00;;;;;;;10.55;100.00;99372.13;5096148;28;20107;-76
2024/02/15 05:47:12;;;;;;;2.10;1.42;;;;;;;10.54;100.00;99366.97;5113095;28;20076;-75
2024/02/15 05:49:38;;;;;;;1.35;0.90;;;;;;;10.55;100.00;99360.56;5096673;28;20380;-76
2024/02/15 05:52:04;;;;;;;0.98;0.90;;;;;;;10.54;100.00;99359.72;5079479;28;20489;-75
2024/02/15 05:54:29;;;;;;;0.85;0.75;;;;;;;10.55;100.00;99357.88;5096373;28;20023;-75
2024/02/15 05:56:55;;;;;;;0.95;0.80;;;;;;;10.55;100.00;99350.63;5079266;28;20486;-75
2024/02/15 05:59:21;;;;;;;1.88;1.20;;;;;;;10.53;100.00;99355.41;5095962;28;20028;-75
2024/02/15 06:01:50;;;;;;;0.93;0.80;;;;;;;10.51;100.00;99341.34;5079031;28;20482;-76
2024/02/15 06:04:16;;;;;;;1.70;1.25;;;;;;;10.54;100.00;99342.78;5096107;28;20024;-76
2024/02/15 06:06:42;;;;;;;1.45;0.95;;;;;;;10.52;100.00;99342.97;5096399;28;20031;-76
2024/02/15 06:09:08;;;;;;;1.05;0.95;;;;;;;10.54;100.00;99343.59;5096271;28;20043;-76
2024/02/15 06:11:34;;;;;;;3.08;1.08;;;;;;;10.54;100.00;99337.41;5078833;28;20035;-76
2024/02/15 06:14:00;;;;;;;1.85;0.85;;;;;;;10.50;100.00;99328.91;5079109;28;20069;-75
2024/02/15 06:16:26;;;;;;;0.98;0.80;;;;;;;10.52;100.00;99334.91;5079052;28;20467;-76
2024/02/15 06:18:52;;;;;;;1.38;0.98;;;;;;;10.53;100.00;99333.91;5095798;28;20031;-75
2024/02/15 06:21:20;;;;;;;0.98;0.75;;;;;;;10.52;100.00;99336.78;5112592;28;20114;-76
2024/02/15 06:23:48;;;;;;;1.90;1.23;;;;;;;10.51;100.00;99333.28;5095953;28;20065;-75
2024/02/15 06:26:14;;;;;;;1.15;0.98;;;;;;;10.49;100.00;99332.66;5112591;28;20055;-76
2024/02/15 06:39:44;;;;;;;2.00;1.30;;;;;;;10.37;100.00;99312.81;5098241;28;20114;-75
2024/02/15 06:42:11;;;;;;;1.75;1.25;;;;;;;10.42;100.00;99326.47;5096040;28;20043;-75
2024/02/15 06:44:40;;;;;;;1.73;1.25;;;;;;;10.43;100.00;99328.13;5078816;28;20119;-76
2024/02/15 06:47:06;;;;;;;2.50;1.35;;;;;;;10.43;100.00;99322.75;5113152;28;20031;-75
2024/02/15 06:49:33;;;;;;;2.67;1.15;;;;;;;10.42;100.00;99317.59;5099355;28;20031;-75
2024/02/15 06:52:01;;;;;;;1.92;1.13;;;;;;;10.41;100.00;99311.38;5099678;28;20027;-75
2024/02/15 06:54:28;;;;;;;1.75;0.93;;;;;;;10.40;100.00;99314.28;5116669;28;20055;-75
2024/02/15 06:56:57;;;;;;;1.58;1.00;;;;;;;10.36;100.00;99319.25;5082668;28;20063;-75
2024/02/15 06:59:23;;;;;;;2.10;1.27;;;;;;;10.43;100.00;99325.44;5116962;28;20038;-75
2024/02/15 07:01:52;;;;;;;2.08;1.15;;;;;;;10.44;100.00;99335.16;5082628;28;20028;-75
2024/02/15 07:04:20;;;;;;;2.17;1.35;;;;;;;10.44;100.00;99348.59;5099756;28;20024;-75
2024/02/15 07:06:49;;;;;;;2.72;1.00;;;;;;;10.44;100.00;99356.66;5116255;28;20024;-75
2024/02/15 07:09:15;;;;;;;2.15;1.40;;;;;;;10.44;100.00;99356.66;5099679;28;20510;-75
2024/02/15 07:11:41;;;;;;;5.22;1.42;;;;;;;10.45;100.00;99368.22;5082358;28;20028;-76
2024/02/15 07:14:09;;;;;;;4.00;1.60;;;;;;;10.45;100.00;99374.44;5099545;28;20514;-76
2024/02/15 07:16:34;;;;;;;3.35;1.23;;;;;;;10.45;100.00;99379.81;5066527;28;20399;-75
2024/02/15 07:19:01;;;;;;;3.10;1.05;;;;;;;10.44;100.00;99386.19;5082304;28;20032;-75
2024/02/15 07:21:27;;;;;;;7.13;1.17;;;;;;;10.44;100.00;99393.44;5098419;28;20023;-75
2024/02/15 07:23:56;;;;;;;7.63;1.58;;;;;;;10.43;100.00;99398.00;5082173;28;20035;-75
2024/02/15 07:26:24;;;;;;;1.42;0.88;;;;;;;10.44;100.00;99396.94;5098694;28;20041;-75
2024/02/15 07:28:54;;;;;;;3.72;1.15;;;;;;;10.42;100.00;99401.69;5098936;28;20031;-75
2024/02/15 07:31:23;;;;;;;2.13;1.10;;;;;;;10.41;100.00;99410.00;5115471;28;20035;-76
2024/02/15 07:33:51;;;;;;;3.47;1.20;;;;;;;10.39;100.00;99415.56;5098772;28;20114;-76
2024/02/15 07:36:23;;;;;;;4.20;1.77;;;;;;;10.38;100.00;99413.09;5115789;28;20042;-75
2024/02/15 07:39:00;;;;;;;7.20;1.05;;;;;;;10.38;100.00;99421.16;5098405;28;20028;-76
2024/02/15 07:41:32;;;;;;;2.13;1.38;;;;;;;10.36;100.00;99424.03;5116292;28;20540;-76
2024/02/15 07:43:58;;;;;;;9.82;1.40;;;;;;;10.37;100.00;99436.41;5081666;28;20067;-76
2024/02/15 07:46:25;;;;;;;2.97;1.42;;;;;;;10.35;100.00;99441.19;5115331;28;20036;-75
2024/02/15 07:48:50;;;;;;;8.25;1.15;;;;;;;10.36;100.00;99445.53;5081395;28;20024;-76
2024/02/15 07:51:20;;;;;;;7.65;1.70;;;;;;;10.34;100.00;99447.59;5081371;28;20028;-75
2024/02/15 07:53:49;;;;;;;4.90;1.33;;;;;;;10.34;100.00;99445.72;5099199;28;20036;-76
2024/02/15 07:56:16;;;;;;;16.80;1.63;;;;;;;10.36;100.00;99444.72;5098924;28;20073;-75
2024/02/15 07:58:47;;;;;;;9.60;1.50;;;;;;;10.34;100.00;99443.03;5080903;28;20391;-76
2024/02/15 08:01:16;;;;;;;6.60;1.27;;;;;;;10.32;100.00;99441.63;5098713;28;20043;-75
2024/02/15 08:03:45;;;;;;;6.10;2.15;;;;;;;10.32;100.00;99438.94;5081683;28;20849;-75
2024/02/15 08:06:12;;;;;;;2.90;1.13;;;;;;;10.30;100.00;99446.38;5097663;28;20456;-76
2024/02/15 08:08:42;;;;;;;3.28;1.45;;;;;;;10.27;100.00;99446.75;5098085;28;20031;-75
2024/02/15 08:11:14;;;;;;;2.90;1.30;;;;;;;10.23;100.00;99456.25;5114623;28;20065;-76
2024/02/15 08:13:43;;;;;;;3.03;1.30;;;;;;;10.20;100.00;99462.84;5098537;28;20054;-75
2024/02/15 08:16:09;;;;;;;3.13;1.23;;;;;;;10.17;100.00;99470.50;5097682;28;20478;-76
2024/02/15 08:18:35;;;;;;;3.25;1.08;;;;;;;10.13;100.00;99468.22;5081303;28;20032;-75
2024/02/15 08:21:01;;;;;;;4.20;1.73;;;;;;;10.09;100.00;99466.97;5081141;28;20030;-76
2024/02/15 08:23:32;;;;;;;3.10;1.73;;;;;;;10.07;100.00;99471.72;5114449;28;20107;-76
2024/02/15 08:25:58;;;;;;;3.95;1.45;;;;;;;10.08;100.00;99478.75;5097174;28;20470;-76
2024/02/15 08:28:23;;;;;;;3.03;1.58;;;;;;;10.08;100.00;99459.97;5080742;28;20042;-75
2024/02/15 08:30:49;;;;;;;2.85;1.73;;;;;;;10.12;100.00;99465.72;5080490;28;20023;-76
2024/02/15 08:33:15;;;;;;;2.47;1.50;;;;;;;10.16;100.00;99471.50;5097603;28;20055;-75
2024/02/15 08:35:41;;;;;;;1.90;1.23;;;;;;;10.16;100.00;99476.88;5097451;28;20074;-75
2024/02/15 08:38:06;;;;;;;2.80;1.60;;;;;;;10.10;100.00;99463.25;5097483;28;20031;-76
2024/02/15 08:40:32;;;;;;;5.35;2.22;;;;;;;10.09;100.00;99466.97;5080390;28;20080;-76
2024/02/15 08:42:58;;;;;;;4.93;1.52;;;;;;;10.12;100.00;99471.09;5097218;28;20099;-76
2024/02/15 08:45:24;;;;;;;7.22;1.70;;;;;;;10.16;100.00;99482.25;5097455;28;20039;-75
2024/02/15 08:47:52;;;;;;;4.25;1.33;;;;;;;10.22;100.00;99493.03;5080500;28;20031;-75
2024/02/15 08:50:19;;;;;;;7.68;1.75;;;;;;;10.25;100.00;99492.63;5097211;28;20451;-77
2024/02/15 08:52:45;;;;;;;5.50;1.40;;;;;;;10.27;100.00;99489.75;5097743;28;20035;-76
2024/02/15 08:55:14;;;;;;;3.08;1.58;;;;;;;10.26;100.00;99486.19;5096881;28;20039;-76
2024/02/15 08:57:40;;;;;;;3.75;1.55;;;;;;;10.26;100.00;99477.31;5097265;28;20043;-76
2024/02/15 09:00:13;;;;;;;4.93;1.40;;;;;;;10.24;100.00;99487.44;5113966;28;20463;-76
2024/02/15 09:02:40;;;;;;;2.85;1.40;;;;;;;10.15;100.00;99497.56;5113846;28;20049;-76
2024/02/15 09:05:06;;;;;;;3.45;1.65;;;;;;;10.09;100.00;99503.75;5096493;28;20032;-76
2024/02/15 09:07:32;;;;;;;5.20;1.45;;;;;;;10.03;100.00;99500.03;5079976;28;20039;-76
2024/02/15 09:09:59;;;;;;;3.55;1.63;;;;;;;10.04;100.00;99500.84;5114013;28;20031;-76
2024/02/15 09:12:25;;;;;;;3.33;1.48;;;;;;;10.07;100.00;99506.63;5096650;28;20032;-76
2024/02/15 09:14:50;;;;;;;4.13;1.25;;;;;;;10.16;100.00;99514.50;5096680;28;20068;-76
2024/02/15 09:17:16;;;;;;;1.75;1.27;;;;;;;10.21;100.00;99509.34;5096606;28;20107;-76
2024/02/15 09:19:42;;;;;;;7.05;1.45;;;;;;;10.22;100.00;99511.00;5096957;28;20074;-76
2024/02/15 09:22:08;;;;;;;2.97;1.48;;;;;;;10.27;100.00;99509.41;5079961;28;20115;-76
2024/02/15 09:24:33;;;;;;;3.08;1.55;;;;;;;10.35;100.00;99508.38;5096816;28;20035;-76
2024/02/15 09:27:02;;;;;;;2.58;1.08;;;;;;;10.42;100.00;99511.06;5097485;28;20035;-76
2024/02/15 09:29:34;;;;;;;2.75;1.30;;;;;;;10.46;100.00;99506.94;5097296;28;20027;-76
2024/02/15 09:32:03;;;;;;;3.13;1.30;;;;;;;10.48;100.00;99512.94;5097721;28;20056;-76
2024/02/15 09:34:28;;;;;;;3.65;1.65;;;;;;;10.52;100.00;99516.84;5096992;28;20024;-76
2024/02/15 09:36:56;;;;;;;6.43;1.38;;;;;;;10.54;100.00;99515.63;5096965;28;20567;-76
2024/02/15 09:39:23;;;;;;;3.25;1.42;;;;;;;10.55;100.00;99514.56;5113179;28;20102;-76
2024/02/15 09:41:55;;;;;;;1.77;1.00;;;;;;;10.62;100.00;99516.44;5080778;28;20122;-76
2024/02/15 09:44:21;;;;;;;5.43;1.73;;;;;;;10.68;100.00;99518.31;5097255;28;20031;-76
2024/02/15 09:46:51;;;;;;;3.15;1.35;;;;;;;10.78;100.00;99521.41;5096702;28;20036;-76
2024/02/15 09:49:17;;;;;;;3.28;1.20;;;;;;;10.89;100.00;99518.09;5096523;28;20053;-76
2024/02/15 09:51:44;;;;;;;2.03;1.23;;;;;;;11.16;100.00;99518.06;5095657;28;20020;-75
2024/02/15 09:54:10;;;;;;;2.42;1.27;;;;;;;11.73;100.00;99518.31;5096071;28;20027;-76
2024/02/15 09:56:38;;;;;;;1.95;1.30;;;;;;;12.34;100.00;99519.66;5113741;28;20020;-76
2024/02/15 09:59:03;;;;;;;2.25;1.13;;;;;;;12.69;100.00;99525.41;5112895;28;20023;-76
2024/02/15 10:01:31;;;;;;;2.10;1.20;;;;;;;13.10;100.00;99532.94;5079340;28;20027;-76
2024/02/15 10:03:59;;;;;;;1.83;1.17;;;;;;;13.27;100.00;99543.19;5112731;28;20467;-76
2024/02/15 10:06:25;;;;;;;2.30;1.10;;;;;;;13.47;100.00;99545.66;5096118;28;20031;-76
2024/02/15 10:08:52;;;;;;;1.08;0.98;;;;;;;13.36;100.00;99545.38;5113120;28;20471;-76
2024/02/15 10:11:17;;;;;;;4.00;0.95;;;;;;;12.89;100.00;99536.06;5079907;28;20027;-76
2024/02/15 10:13:44;;;;;;;1.58;0.90;;;;;;;12.64;100.00;99547.63;5095775;28;20058;-76
2024/02/15 10:16:24;;;;;;;2.58;1.20;;;;;;;12.62;100.00;99552.44;5112609;28;20478;-76
2024/02/15 10:18:50;;;;;;;3.40;1.08;;;;;;;12.61;100.00;99555.34;5114088;28;20046;-77
2024/02/15 10:21:30;;;;;;;2.42;0.80;;;;;;;12.47;100.00;99555.44;5096017;28;20028;-76
2024/02/15 10:24:05;;;;;;;4.00;1.23;;;;;;;12.52;100.00;99544.84;5112066;28;20100;-76
2024/02/15 10:26:32;;;;;;;3.70;1.23;;;;;;;12.46;100.00;99539.47;5079246;28;20410;-76
2024/02/15 10:29:11;;;;;;;2.28;1.13;;;;;;;12.48;100.00;99546.31;5095887;28;20067;-76
2024/02/15 10:31:41;;;;;;;1.73;1.00;;;;;;;12.27;100.00;99547.47;5112323;28;20506;-76
2024/02/15 10:34:08;;;;;;;3.67;1.15;;;;;;;12.25;100.00;99541.50;5112680;28;20036;-76
2024/02/15 10:36:34;;;;;;;4.10;1.30;;;;;;;12.51;100.00;99550.44;5112729;28;20530;-76
2024/02/15 10:39:19;;;;;;;4.00;1.50;;;;;;;12.58;100.00;99545.00;5112366;28;20107;-76
2024/02/15 10:41:51;;;;;;;4.53;1.38;;;;;;;12.86;100.00;99547.25;5095995;28;20063;-76
2024/02/15 10:44:21;;;;;;;0.70;0.70;;;;;;;12.55;100.00;99538.19;5095513;28;20506;-76
2024/02/15 10:46:51;;;;;;;3.83;1.48;;;;;;;12.72;100.00;99535.75;5078744;28;20174;-77
2024/02/15 10:49:18;;;;;;;1.90;1.10;;;;;;;13.04;100.00;99533.81;5079816;28;20047;-77
2024/02/15 10:51:45;;;;;;;1.60;0.90;;;;;;;13.73;100.00;99539.16;5112129;28;20024;-76
2024/02/15 10:54:18;;;;;;;2.42;1.50;;;;;;;13.91;100.00;99546.41;5095802;28;20065;-76
2024/02/15 10:56:46;;;;;;;1.45;0.93;;;;;;;13.81;100.00;99545.09;5062601;28;20039;-76
2024/02/15 10:59:23;;;;;;;9.88;1.58;;;;;;;13.59;100.00;99542.00;5112504;28;20027;-75
2024/02/15 11:01:50;;;;;;;6.10;1.67;;;;;;;13.45;100.00;99547.78;5063096;28;20070;-76
2024/02/15 11:04:32;;;;;;;11.82;2.15;;;;;;;13.44;100.00;99555.03;5112415;28;20472;-76
2024/02/15 11:07:01;;;;;;;2.95;1.17;;;;;;;13.34;100.00;99563.69;5113390;28;20309;-76
2024/02/15 11:09:29;;;;;;;1.90;0.82;;;;;;;13.34;100.00;99570.97;5095551;28;20036;-76
2024/02/15 11:11:55;;;;;;;0.93;0.85;;;;;;;13.33;100.00;99580.09;5095844;28;20063;-76
2024/02/15 11:14:31;;;;;;;1.48;0.63;;;;;;;13.32;100.00;99578.44;5112808;28;20072;-76
2024/02/15 11:17:02;;;;;;;1.27;1.02;;;;;;;13.27;100.00;99567.50;5095564;28;20035;-76
2024/02/15 11:19:48;;;;;;;1.67;1.08;;;;;;;13.29;100.00;99579.72;5112242;28;20063;-76
2024/02/15 11:22:15;;;;;;;2.03;0.85;;;;;;;13.22;100.00;99580.78;5078241;28;20070;-76
2024/02/15 11:24:48;;;;;;;0.98;0.73;;;;;;;13.16;100.00;99577.13;5111917;28;20063;-76
2024/02/15 11:27:27;;;;;;;2.80;1.50;;;;;;;13.33;100.00;99580.91;5112082;28;20035;-76
2024/02/15 11:30:03;;;;;;;1.48;0.75;;;;;;;13.50;100.00;99573.06;5112412;28;20373;-76
2024/02/15 11:32:44;;;;;;;1.92;1.02;;;;;;;13.79;100.00;99576.91;5111969;28;20028;-76
2024/02/15 11:35:14;;;;;;;2.15;1.25;;;;;;;13.85;100.00;99572.47;5096949;28;20032;-76
2024/02/15 11:40:22;;;;;;;2.15;0.88;;;;;;;14.08;100.00;99579.88;5116675;28;20119;-76